<?xml version="1.0" encoding="UTF-8" standalone="no" ?>
<gpx xmlns="http://www.topografix.com/GPX/1/1" xmlns:xsi="http://www.w3.org/2001/XMLSchema-instance" xsi:schemaLocation="http://www.topografix.com/GPX/1/1 http://www.topografix.com/GPX/1/1/gpx.xsd" version="1.1" creator="VisuGPX - https://www.visugpx.com">
  <metadata>
    <name>rallonge de 43 a 54km</name>
    <desc><![CDATA[Coublevitaine 2022 rallonge 43+ 9 km]]></desc>
  </metadata>
  <trk>
    <name><![CDATA[rallonge de 43 a 54km]]></name>
    <trkseg>
      <trkpt lat="45.42552" lon="5.66316">
        <ele>888.88</ele>
        <time>2019-11-03T08:52:01Z</time>
      </trkpt>
      <trkpt lat="45.42552" lon="5.66316">
        <ele>888.88</ele>
        <time>2019-11-03T08:52:02Z</time>
      </trkpt>
      <trkpt lat="45.4256" lon="5.66301">
        <ele>889.84</ele>
        <time>2019-11-03T08:52:21Z</time>
      </trkpt>
      <trkpt lat="45.42573" lon="5.663">
        <ele>890.8</ele>
        <time>2019-11-03T08:52:35Z</time>
      </trkpt>
      <trkpt lat="45.42586" lon="5.66307">
        <ele>890.8</ele>
        <time>2019-11-03T08:52:57Z</time>
      </trkpt>
      <trkpt lat="45.42591" lon="5.66316">
        <ele>891.76</ele>
        <time>2019-11-03T08:53:04Z</time>
      </trkpt>
      <trkpt lat="45.42606" lon="5.66338">
        <ele>890.8</ele>
        <time>2019-11-03T08:53:20Z</time>
      </trkpt>
      <trkpt lat="45.42615" lon="5.66361">
        <ele>889.84</ele>
        <time>2019-11-03T08:53:32Z</time>
      </trkpt>
      <trkpt lat="45.42617" lon="5.66365">
        <ele>889.84</ele>
        <time>2019-11-03T08:53:35Z</time>
      </trkpt>
      <trkpt lat="45.42632" lon="5.66391">
        <ele>887.91</ele>
        <time>2019-11-03T08:53:50Z</time>
      </trkpt>
      <trkpt lat="45.42645" lon="5.66406">
        <ele>886.95</ele>
        <time>2019-11-03T08:54:02Z</time>
      </trkpt>
      <trkpt lat="45.42652" lon="5.66415">
        <ele>886.95</ele>
        <time>2019-11-03T08:54:09Z</time>
      </trkpt>
      <trkpt lat="45.4266" lon="5.66425">
        <ele>886.95</ele>
        <time>2019-11-03T08:54:17Z</time>
      </trkpt>
      <trkpt lat="45.4267" lon="5.66434">
        <ele>887.91</ele>
        <time>2019-11-03T08:54:25Z</time>
      </trkpt>
      <trkpt lat="45.42672" lon="5.66436">
        <ele>887.91</ele>
        <time>2019-11-03T08:54:27Z</time>
      </trkpt>
      <trkpt lat="45.42682" lon="5.66443">
        <ele>887.91</ele>
        <time>2019-11-03T08:54:37Z</time>
      </trkpt>
      <trkpt lat="45.42687" lon="5.66451">
        <ele>887.91</ele>
        <time>2019-11-03T08:54:42Z</time>
      </trkpt>
      <trkpt lat="45.427" lon="5.66472">
        <ele>887.91</ele>
        <time>2019-11-03T08:54:57Z</time>
      </trkpt>
      <trkpt lat="45.42705" lon="5.6648">
        <ele>887.91</ele>
        <time>2019-11-03T08:55:03Z</time>
      </trkpt>
      <trkpt lat="45.42712" lon="5.66502">
        <ele>887.91</ele>
        <time>2019-11-03T08:55:20Z</time>
      </trkpt>
      <trkpt lat="45.42717" lon="5.66526">
        <ele>886.95</ele>
        <time>2019-11-03T08:55:33Z</time>
      </trkpt>
      <trkpt lat="45.42717" lon="5.6655">
        <ele>887.91</ele>
        <time>2019-11-03T08:55:45Z</time>
      </trkpt>
      <trkpt lat="45.42719" lon="5.66555">
        <ele>887.91</ele>
        <time>2019-11-03T08:55:47Z</time>
      </trkpt>
      <trkpt lat="45.4272" lon="5.66562">
        <ele>888.88</ele>
        <time>2019-11-03T08:55:50Z</time>
      </trkpt>
      <trkpt lat="45.42721" lon="5.6657">
        <ele>888.88</ele>
        <time>2019-11-03T08:55:53Z</time>
      </trkpt>
      <trkpt lat="45.42729" lon="5.66599">
        <ele>888.88</ele>
        <time>2019-11-03T08:56:07Z</time>
      </trkpt>
      <trkpt lat="45.42744" lon="5.66622">
        <ele>888.88</ele>
        <time>2019-11-03T08:56:21Z</time>
      </trkpt>
      <trkpt lat="45.42762" lon="5.66643">
        <ele>887.91</ele>
        <time>2019-11-03T08:56:34Z</time>
      </trkpt>
      <trkpt lat="45.42763" lon="5.66644">
        <ele>887.91</ele>
        <time>2019-11-03T08:56:35Z</time>
      </trkpt>
      <trkpt lat="45.42775" lon="5.66647">
        <ele>887.91</ele>
        <time>2019-11-03T08:56:46Z</time>
      </trkpt>
      <trkpt lat="45.42779" lon="5.66654">
        <ele>887.91</ele>
        <time>2019-11-03T08:56:51Z</time>
      </trkpt>
      <trkpt lat="45.42784" lon="5.6666">
        <ele>887.91</ele>
        <time>2019-11-03T08:56:55Z</time>
      </trkpt>
      <trkpt lat="45.42794" lon="5.66684">
        <ele>886.95</ele>
        <time>2019-11-03T08:57:10Z</time>
      </trkpt>
      <trkpt lat="45.42805" lon="5.66707">
        <ele>885.03</ele>
        <time>2019-11-03T08:57:24Z</time>
      </trkpt>
      <trkpt lat="45.42806" lon="5.6671">
        <ele>885.03</ele>
        <time>2019-11-03T08:57:26Z</time>
      </trkpt>
      <trkpt lat="45.42816" lon="5.66752">
        <ele>884.07</ele>
        <time>2019-11-03T08:57:44Z</time>
      </trkpt>
      <trkpt lat="45.42828" lon="5.66773">
        <ele>883.11</ele>
        <time>2019-11-03T08:57:58Z</time>
      </trkpt>
      <trkpt lat="45.42839" lon="5.66799">
        <ele>884.07</ele>
        <time>2019-11-03T08:58:13Z</time>
      </trkpt>
      <trkpt lat="45.42845" lon="5.66821">
        <ele>884.07</ele>
        <time>2019-11-03T08:58:24Z</time>
      </trkpt>
      <trkpt lat="45.42849" lon="5.66828">
        <ele>884.07</ele>
        <time>2019-11-03T08:58:28Z</time>
      </trkpt>
      <trkpt lat="45.42854" lon="5.66847">
        <ele>884.07</ele>
        <time>2019-11-03T08:58:38Z</time>
      </trkpt>
      <trkpt lat="45.4287" lon="5.66866">
        <ele>883.11</ele>
        <time>2019-11-03T08:58:53Z</time>
      </trkpt>
      <trkpt lat="45.42883" lon="5.66886">
        <ele>880.22</ele>
        <time>2019-11-03T08:59:09Z</time>
      </trkpt>
      <trkpt lat="45.42889" lon="5.66899">
        <ele>876.86</ele>
        <time>2019-11-03T08:59:19Z</time>
      </trkpt>
      <trkpt lat="45.42892" lon="5.66917">
        <ele>873.01</ele>
        <time>2019-11-03T08:59:32Z</time>
      </trkpt>
      <trkpt lat="45.42894" lon="5.66925">
        <ele>873.01</ele>
        <time>2019-11-03T08:59:36Z</time>
      </trkpt>
      <trkpt lat="45.42903" lon="5.66957">
        <ele>870.13</ele>
        <time>2019-11-03T08:59:50Z</time>
      </trkpt>
      <trkpt lat="45.42906" lon="5.66964">
        <ele>870.13</ele>
        <time>2019-11-03T08:59:54Z</time>
      </trkpt>
      <trkpt lat="45.42917" lon="5.66991">
        <ele>869.17</ele>
        <time>2019-11-03T09:00:09Z</time>
      </trkpt>
      <trkpt lat="45.42925" lon="5.67006">
        <ele>868.21</ele>
        <time>2019-11-03T09:00:20Z</time>
      </trkpt>
      <trkpt lat="45.4294" lon="5.67041">
        <ele>868.21</ele>
        <time>2019-11-03T09:00:44Z</time>
      </trkpt>
      <trkpt lat="45.4295" lon="5.67065">
        <ele>868.21</ele>
        <time>2019-11-03T09:00:59Z</time>
      </trkpt>
      <trkpt lat="45.42952" lon="5.6707">
        <ele>868.21</ele>
        <time>2019-11-03T09:01:02Z</time>
      </trkpt>
      <trkpt lat="45.42954" lon="5.67075">
        <ele>869.17</ele>
        <time>2019-11-03T09:01:05Z</time>
      </trkpt>
      <trkpt lat="45.42956" lon="5.67077">
        <ele>869.17</ele>
        <time>2019-11-03T09:01:07Z</time>
      </trkpt>
      <trkpt lat="45.42958" lon="5.67081">
        <ele>869.17</ele>
        <time>2019-11-03T09:01:10Z</time>
      </trkpt>
      <trkpt lat="45.42971" lon="5.67098">
        <ele>870.13</ele>
        <time>2019-11-03T09:01:23Z</time>
      </trkpt>
      <trkpt lat="45.42972" lon="5.671">
        <ele>869.17</ele>
        <time>2019-11-03T09:01:24Z</time>
      </trkpt>
      <trkpt lat="45.42981" lon="5.67106">
        <ele>869.17</ele>
        <time>2019-11-03T09:01:31Z</time>
      </trkpt>
      <trkpt lat="45.43" lon="5.67126">
        <ele>868.21</ele>
        <time>2019-11-03T09:01:49Z</time>
      </trkpt>
      <trkpt lat="45.43007" lon="5.67138">
        <ele>868.21</ele>
        <time>2019-11-03T09:01:56Z</time>
      </trkpt>
      <trkpt lat="45.43022" lon="5.67162">
        <ele>866.77</ele>
        <time>2019-11-03T09:02:13Z</time>
      </trkpt>
      <trkpt lat="45.43033" lon="5.67179">
        <ele>866.77</ele>
        <time>2019-11-03T09:02:25Z</time>
      </trkpt>
      <trkpt lat="45.43038" lon="5.67193">
        <ele>866.77</ele>
        <time>2019-11-03T09:02:40Z</time>
      </trkpt>
      <trkpt lat="45.4304" lon="5.67212">
        <ele>866.77</ele>
        <time>2019-11-03T09:02:49Z</time>
      </trkpt>
      <trkpt lat="45.43041" lon="5.67217">
        <ele>866.77</ele>
        <time>2019-11-03T09:02:53Z</time>
      </trkpt>
      <trkpt lat="45.43052" lon="5.67245">
        <ele>868.21</ele>
        <time>2019-11-03T09:03:09Z</time>
      </trkpt>
      <trkpt lat="45.43054" lon="5.67252">
        <ele>868.21</ele>
        <time>2019-11-03T09:03:14Z</time>
      </trkpt>
      <trkpt lat="45.43064" lon="5.67275">
        <ele>866.77</ele>
        <time>2019-11-03T09:03:27Z</time>
      </trkpt>
      <trkpt lat="45.43076" lon="5.67305">
        <ele>868.21</ele>
        <time>2019-11-03T09:03:42Z</time>
      </trkpt>
      <trkpt lat="45.43081" lon="5.67311">
        <ele>868.21</ele>
        <time>2019-11-03T09:03:48Z</time>
      </trkpt>
      <trkpt lat="45.43087" lon="5.67332">
        <ele>868.21</ele>
        <time>2019-11-03T09:03:58Z</time>
      </trkpt>
      <trkpt lat="45.43093" lon="5.67347">
        <ele>869.17</ele>
        <time>2019-11-03T09:04:05Z</time>
      </trkpt>
      <trkpt lat="45.43096" lon="5.67355">
        <ele>869.17</ele>
        <time>2019-11-03T09:04:08Z</time>
      </trkpt>
      <trkpt lat="45.43102" lon="5.67376">
        <ele>870.13</ele>
        <time>2019-11-03T09:04:19Z</time>
      </trkpt>
      <trkpt lat="45.43113" lon="5.67408">
        <ele>873.01</ele>
        <time>2019-11-03T09:04:38Z</time>
      </trkpt>
      <trkpt lat="45.43114" lon="5.67412">
        <ele>873.01</ele>
        <time>2019-11-03T09:04:40Z</time>
      </trkpt>
      <trkpt lat="45.43118" lon="5.67433">
        <ele>873.98</ele>
        <time>2019-11-03T09:04:55Z</time>
      </trkpt>
      <trkpt lat="45.4312" lon="5.67461">
        <ele>873.98</ele>
        <time>2019-11-03T09:05:11Z</time>
      </trkpt>
      <trkpt lat="45.43118" lon="5.67474">
        <ele>874.94</ele>
        <time>2019-11-03T09:05:17Z</time>
      </trkpt>
      <trkpt lat="45.43121" lon="5.675">
        <ele>875.9</ele>
        <time>2019-11-03T09:05:30Z</time>
      </trkpt>
      <trkpt lat="45.43124" lon="5.67524">
        <ele>875.9</ele>
        <time>2019-11-03T09:05:42Z</time>
      </trkpt>
      <trkpt lat="45.43135" lon="5.67557">
        <ele>876.86</ele>
        <time>2019-11-03T09:06:00Z</time>
      </trkpt>
      <trkpt lat="45.43136" lon="5.67559">
        <ele>876.86</ele>
        <time>2019-11-03T09:06:01Z</time>
      </trkpt>
      <trkpt lat="45.43138" lon="5.67574">
        <ele>876.86</ele>
        <time>2019-11-03T09:06:08Z</time>
      </trkpt>
      <trkpt lat="45.4314" lon="5.67579">
        <ele>876.86</ele>
        <time>2019-11-03T09:06:11Z</time>
      </trkpt>
      <trkpt lat="45.4314" lon="5.67584">
        <ele>876.86</ele>
        <time>2019-11-03T09:06:13Z</time>
      </trkpt>
      <trkpt lat="45.43143" lon="5.67594">
        <ele>876.86</ele>
        <time>2019-11-03T09:06:18Z</time>
      </trkpt>
      <trkpt lat="45.43153" lon="5.67611">
        <ele>877.82</ele>
        <time>2019-11-03T09:06:29Z</time>
      </trkpt>
      <trkpt lat="45.43166" lon="5.67636">
        <ele>881.19</ele>
        <time>2019-11-03T09:06:48Z</time>
      </trkpt>
      <trkpt lat="45.43177" lon="5.67664">
        <ele>883.11</ele>
        <time>2019-11-03T09:07:10Z</time>
      </trkpt>
      <trkpt lat="45.43185" lon="5.67692">
        <ele>883.11</ele>
        <time>2019-11-03T09:07:25Z</time>
      </trkpt>
      <trkpt lat="45.43189" lon="5.67716">
        <ele>882.15</ele>
        <time>2019-11-03T09:07:37Z</time>
      </trkpt>
      <trkpt lat="45.432" lon="5.6774">
        <ele>882.15</ele>
        <time>2019-11-03T09:07:52Z</time>
      </trkpt>
      <trkpt lat="45.43213" lon="5.67754">
        <ele>881.19</ele>
        <time>2019-11-03T09:08:08Z</time>
      </trkpt>
      <trkpt lat="45.43212" lon="5.67758">
        <ele>881.19</ele>
        <time>2019-11-03T09:08:37Z</time>
      </trkpt>
      <trkpt lat="45.43212" lon="5.67756">
        <ele>880.22</ele>
        <time>2019-11-03T09:09:04Z</time>
      </trkpt>
      <trkpt lat="45.43214" lon="5.67753">
        <ele>881.19</ele>
        <time>2019-11-03T09:09:35Z</time>
      </trkpt>
      <trkpt lat="45.43212" lon="5.67757">
        <ele>880.22</ele>
        <time>2019-11-03T09:10:01Z</time>
      </trkpt>
      <trkpt lat="45.4321" lon="5.67765">
        <ele>880.22</ele>
        <time>2019-11-03T09:10:28Z</time>
      </trkpt>
      <trkpt lat="45.43225" lon="5.67774">
        <ele>880.22</ele>
        <time>2019-11-03T09:10:49Z</time>
      </trkpt>
      <trkpt lat="45.43231" lon="5.67779">
        <ele>877.82</ele>
        <time>2019-11-03T09:10:54Z</time>
      </trkpt>
      <trkpt lat="45.43243" lon="5.67785">
        <ele>876.86</ele>
        <time>2019-11-03T09:11:03Z</time>
      </trkpt>
      <trkpt lat="45.43266" lon="5.6779">
        <ele>877.82</ele>
        <time>2019-11-03T09:11:19Z</time>
      </trkpt>
      <trkpt lat="45.43277" lon="5.67795">
        <ele>878.78</ele>
        <time>2019-11-03T09:11:27Z</time>
      </trkpt>
      <trkpt lat="45.43292" lon="5.67801">
        <ele>877.82</ele>
        <time>2019-11-03T09:11:41Z</time>
      </trkpt>
      <trkpt lat="45.43294" lon="5.67802">
        <ele>878.78</ele>
        <time>2019-11-03T09:11:43Z</time>
      </trkpt>
      <trkpt lat="45.43313" lon="5.67798">
        <ele>877.82</ele>
        <time>2019-11-03T09:11:58Z</time>
      </trkpt>
      <trkpt lat="45.43316" lon="5.67792">
        <ele>877.82</ele>
        <time>2019-11-03T09:12:02Z</time>
      </trkpt>
      <trkpt lat="45.43336" lon="5.67788">
        <ele>876.86</ele>
        <time>2019-11-03T09:12:17Z</time>
      </trkpt>
      <trkpt lat="45.43346" lon="5.67787">
        <ele>877.82</ele>
        <time>2019-11-03T09:12:27Z</time>
      </trkpt>
      <trkpt lat="45.43367" lon="5.67787">
        <ele>877.82</ele>
        <time>2019-11-03T09:12:44Z</time>
      </trkpt>
      <trkpt lat="45.43372" lon="5.67786">
        <ele>876.86</ele>
        <time>2019-11-03T09:12:49Z</time>
      </trkpt>
      <trkpt lat="45.43381" lon="5.67783">
        <ele>876.86</ele>
        <time>2019-11-03T09:12:55Z</time>
      </trkpt>
      <trkpt lat="45.43388" lon="5.67785">
        <ele>875.9</ele>
        <time>2019-11-03T09:13:01Z</time>
      </trkpt>
      <trkpt lat="45.43409" lon="5.67784">
        <ele>874.94</ele>
        <time>2019-11-03T09:13:15Z</time>
      </trkpt>
      <trkpt lat="45.43429" lon="5.67785">
        <ele>873.98</ele>
        <time>2019-11-03T09:13:30Z</time>
      </trkpt>
      <trkpt lat="45.43449" lon="5.67795">
        <ele>871.09</ele>
        <time>2019-11-03T09:13:45Z</time>
      </trkpt>
      <trkpt lat="45.43454" lon="5.67798">
        <ele>870.13</ele>
        <time>2019-11-03T09:13:49Z</time>
      </trkpt>
      <trkpt lat="45.43469" lon="5.6781">
        <ele>869.17</ele>
        <time>2019-11-03T09:13:59Z</time>
      </trkpt>
      <trkpt lat="45.43481" lon="5.67819">
        <ele>868.21</ele>
        <time>2019-11-03T09:14:09Z</time>
      </trkpt>
      <trkpt lat="45.43489" lon="5.67827">
        <ele>866.77</ele>
        <time>2019-11-03T09:14:14Z</time>
      </trkpt>
      <trkpt lat="45.43507" lon="5.67847">
        <ele>865.8</ele>
        <time>2019-11-03T09:14:30Z</time>
      </trkpt>
      <trkpt lat="45.43525" lon="5.67865">
        <ele>862.92</ele>
        <time>2019-11-03T09:14:47Z</time>
      </trkpt>
      <trkpt lat="45.43546" lon="5.67875">
        <ele>861.96</ele>
        <time>2019-11-03T09:15:01Z</time>
      </trkpt>
      <trkpt lat="45.43547" lon="5.67874">
        <ele>861</ele>
        <time>2019-11-03T09:15:02Z</time>
      </trkpt>
      <trkpt lat="45.43563" lon="5.67862">
        <ele>859.08</ele>
        <time>2019-11-03T09:15:14Z</time>
      </trkpt>
      <trkpt lat="45.43574" lon="5.67852">
        <ele>860.04</ele>
        <time>2019-11-03T09:15:25Z</time>
      </trkpt>
      <trkpt lat="45.43586" lon="5.6785">
        <ele>861.96</ele>
        <time>2019-11-03T09:15:35Z</time>
      </trkpt>
      <trkpt lat="45.43598" lon="5.67859">
        <ele>862.92</ele>
        <time>2019-11-03T09:15:48Z</time>
      </trkpt>
      <trkpt lat="45.43621" lon="5.67877">
        <ele>863.88</ele>
        <time>2019-11-03T09:16:09Z</time>
      </trkpt>
      <trkpt lat="45.43643" lon="5.67897">
        <ele>865.8</ele>
        <time>2019-11-03T09:16:27Z</time>
      </trkpt>
      <trkpt lat="45.43665" lon="5.67915">
        <ele>865.8</ele>
        <time>2019-11-03T09:16:45Z</time>
      </trkpt>
      <trkpt lat="45.43686" lon="5.67921">
        <ele>866.77</ele>
        <time>2019-11-03T09:17:01Z</time>
      </trkpt>
      <trkpt lat="45.43706" lon="5.67931">
        <ele>865.8</ele>
        <time>2019-11-03T09:17:17Z</time>
      </trkpt>
      <trkpt lat="45.43723" lon="5.67953">
        <ele>868.21</ele>
        <time>2019-11-03T09:17:35Z</time>
      </trkpt>
      <trkpt lat="45.43729" lon="5.67966">
        <ele>869.17</ele>
        <time>2019-11-03T09:17:44Z</time>
      </trkpt>
      <trkpt lat="45.43748" lon="5.67983">
        <ele>869.17</ele>
        <time>2019-11-03T09:18:01Z</time>
      </trkpt>
      <trkpt lat="45.43761" lon="5.67993">
        <ele>870.13</ele>
        <time>2019-11-03T09:18:14Z</time>
      </trkpt>
      <trkpt lat="45.43764" lon="5.67995">
        <ele>871.09</ele>
        <time>2019-11-03T09:18:17Z</time>
      </trkpt>
      <trkpt lat="45.43783" lon="5.68007">
        <ele>870.13</ele>
        <time>2019-11-03T09:18:35Z</time>
      </trkpt>
      <trkpt lat="45.43785" lon="5.68012">
        <ele>870.13</ele>
        <time>2019-11-03T09:18:39Z</time>
      </trkpt>
      <trkpt lat="45.43798" lon="5.68028">
        <ele>869.17</ele>
        <time>2019-11-03T09:18:55Z</time>
      </trkpt>
      <trkpt lat="45.43808" lon="5.68039">
        <ele>869.17</ele>
        <time>2019-11-03T09:19:02Z</time>
      </trkpt>
      <trkpt lat="45.43816" lon="5.68049">
        <ele>869.17</ele>
        <time>2019-11-03T09:19:09Z</time>
      </trkpt>
      <trkpt lat="45.43833" lon="5.68063">
        <ele>868.21</ele>
        <time>2019-11-03T09:19:22Z</time>
      </trkpt>
      <trkpt lat="45.43854" lon="5.68091">
        <ele>869.17</ele>
        <time>2019-11-03T09:19:45Z</time>
      </trkpt>
      <trkpt lat="45.43866" lon="5.6811">
        <ele>868.21</ele>
        <time>2019-11-03T09:20:04Z</time>
      </trkpt>
      <trkpt lat="45.43869" lon="5.68118">
        <ele>869.17</ele>
        <time>2019-11-03T09:20:09Z</time>
      </trkpt>
      <trkpt lat="45.43876" lon="5.68138">
        <ele>869.17</ele>
        <time>2019-11-03T09:20:24Z</time>
      </trkpt>
      <trkpt lat="45.43885" lon="5.68141">
        <ele>870.13</ele>
        <time>2019-11-03T09:20:48Z</time>
      </trkpt>
      <trkpt lat="45.43885" lon="5.68167">
        <ele>866.77</ele>
        <time>2019-11-03T09:21:04Z</time>
      </trkpt>
      <trkpt lat="45.43881" lon="5.68179">
        <ele>865.8</ele>
        <time>2019-11-03T09:21:10Z</time>
      </trkpt>
      <trkpt lat="45.43876" lon="5.68198">
        <ele>864.84</ele>
        <time>2019-11-03T09:21:27Z</time>
      </trkpt>
      <trkpt lat="45.4387" lon="5.6822">
        <ele>863.88</ele>
        <time>2019-11-03T09:21:45Z</time>
      </trkpt>
      <trkpt lat="45.43868" lon="5.68228">
        <ele>863.88</ele>
        <time>2019-11-03T09:21:49Z</time>
      </trkpt>
      <trkpt lat="45.4386" lon="5.68258">
        <ele>861</ele>
        <time>2019-11-03T09:22:03Z</time>
      </trkpt>
      <trkpt lat="45.43918" lon="5.68262">
        <ele>853.775024</ele>
        <time>2019-11-03T09:22:21Z</time>
      </trkpt>
      <trkpt lat="45.44095" lon="5.68369">
        <ele>849.128723</ele>
        <time>2019-11-03T09:22:33Z</time>
      </trkpt>
      <trkpt lat="45.4416" lon="5.68296">
        <ele>849.250732</ele>
        <time>2019-11-03T09:22:37Z</time>
      </trkpt>
      <trkpt lat="45.44244" lon="5.68218">
        <ele>835.537476</ele>
        <time>2019-11-03T09:22:51Z</time>
      </trkpt>
      <trkpt lat="45.44372" lon="5.68149">
        <ele>813.636719</ele>
        <time>2019-11-03T09:23:07Z</time>
      </trkpt>
      <trkpt lat="45.44442" lon="5.68064">
        <ele>786.531372</ele>
        <time>2019-11-03T09:23:27Z</time>
      </trkpt>
      <trkpt lat="45.44533" lon="5.68037">
        <ele>760.880005</ele>
        <time>2019-11-03T09:23:45Z</time>
      </trkpt>
      <trkpt lat="45.44614" lon="5.6817">
        <ele>777.702026</ele>
        <time>2019-11-03T09:24:00Z</time>
      </trkpt>
      <trkpt lat="45.44745" lon="5.68319">
        <ele>774.565002</ele>
        <time>2019-11-03T09:24:52Z</time>
      </trkpt>
      <trkpt lat="45.44851" lon="5.68524">
        <ele>779.320862</ele>
        <time>2019-11-03T09:25:10Z</time>
      </trkpt>
      <trkpt lat="45.44868" lon="5.68723">
        <ele>778.123535</ele>
        <time>2019-11-03T09:25:14Z</time>
      </trkpt>
      <trkpt lat="45.448" lon="5.68891">
        <ele>792.206238</ele>
        <time>2019-11-03T09:25:26Z</time>
      </trkpt>
      <trkpt lat="45.448" lon="5.69026">
        <ele>798.854126</ele>
        <time>2019-11-03T09:25:45Z</time>
      </trkpt>
      <trkpt lat="45.445" lon="5.68753">
        <ele>817.577759</ele>
        <time>2019-11-03T09:26:06Z</time>
      </trkpt>
      <trkpt lat="45.44453" lon="5.69035">
        <ele>816.086792</ele>
        <time>2019-11-03T09:26:22Z</time>
      </trkpt>
      <trkpt lat="45.44178" lon="5.6898">
        <ele>826.852478</ele>
        <time>2019-11-03T09:26:39Z</time>
      </trkpt>
      <trkpt lat="45.44105" lon="5.68937">
        <ele>824.767639</ele>
        <time>2019-11-03T09:26:55Z</time>
      </trkpt>
      <trkpt lat="45.44069" lon="5.68945">
        <ele>822.528687</ele>
        <time>2019-11-03T09:27:10Z</time>
      </trkpt>
      <trkpt lat="45.44011" lon="5.68928">
        <ele>820.868774</ele>
        <time>2019-11-03T09:27:31Z</time>
      </trkpt>
      <trkpt lat="45.43973" lon="5.68913">
        <ele>820.584229</ele>
        <time>2019-11-03T09:27:51Z</time>
      </trkpt>
      <trkpt lat="45.43937" lon="5.68908">
        <ele>819.783997</ele>
        <time>2019-11-03T09:28:11Z</time>
      </trkpt>
      <trkpt lat="45.43966" lon="5.68857">
        <ele>828.79</ele>
        <time>2019-11-03T09:28:25Z</time>
      </trkpt>
      <trkpt lat="45.43945" lon="5.68868">
        <ele>827.83</ele>
        <time>2019-11-03T09:28:41Z</time>
      </trkpt>
      <trkpt lat="45.43922" lon="5.68883">
        <ele>827.83</ele>
        <time>2019-11-03T09:28:58Z</time>
      </trkpt>
      <trkpt lat="45.43898" lon="5.68894">
        <ele>826.87</ele>
        <time>2019-11-03T09:29:15Z</time>
      </trkpt>
      <trkpt lat="45.43875" lon="5.68905">
        <ele>825.91</ele>
        <time>2019-11-03T09:29:32Z</time>
      </trkpt>
      <trkpt lat="45.43847" lon="5.68904">
        <ele>825.91</ele>
        <time>2019-11-03T09:29:51Z</time>
      </trkpt>
      <trkpt lat="45.4381" lon="5.68904">
        <ele>825.91</ele>
        <time>2019-11-03T09:30:16Z</time>
      </trkpt>
      <trkpt lat="45.43782" lon="5.68907">
        <ele>824.95</ele>
        <time>2019-11-03T09:30:37Z</time>
      </trkpt>
      <trkpt lat="45.4375" lon="5.68911">
        <ele>823.99</ele>
        <time>2019-11-03T09:31:00Z</time>
      </trkpt>
      <trkpt lat="45.43718" lon="5.68912">
        <ele>823.03</ele>
        <time>2019-11-03T09:31:21Z</time>
      </trkpt>
      <trkpt lat="45.43694" lon="5.68916">
        <ele>823.03</ele>
        <time>2019-11-03T09:31:38Z</time>
      </trkpt>
      <trkpt lat="45.43671" lon="5.68923">
        <ele>822.06</ele>
        <time>2019-11-03T09:31:56Z</time>
      </trkpt>
      <trkpt lat="45.43652" lon="5.68918">
        <ele>821.1</ele>
        <time>2019-11-03T09:32:11Z</time>
      </trkpt>
      <trkpt lat="45.43633" lon="5.68918">
        <ele>820.14</ele>
        <time>2019-11-03T09:32:24Z</time>
      </trkpt>
      <trkpt lat="45.43613" lon="5.68919">
        <ele>819.18</ele>
        <time>2019-11-03T09:32:39Z</time>
      </trkpt>
      <trkpt lat="45.43602" lon="5.68919">
        <ele>819.18</ele>
        <time>2019-11-03T09:32:48Z</time>
      </trkpt>
      <trkpt lat="45.43593" lon="5.68919">
        <ele>819.18</ele>
        <time>2019-11-03T09:32:54Z</time>
      </trkpt>
      <trkpt lat="45.43566" lon="5.68914">
        <ele>818.22</ele>
        <time>2019-11-03T09:33:10Z</time>
      </trkpt>
      <trkpt lat="45.43545" lon="5.6891">
        <ele>816.78</ele>
        <time>2019-11-03T09:33:22Z</time>
      </trkpt>
      <trkpt lat="45.43529" lon="5.68906">
        <ele>816.78</ele>
        <time>2019-11-03T09:33:33Z</time>
      </trkpt>
      <trkpt lat="45.43504" lon="5.68907">
        <ele>815.82</ele>
        <time>2019-11-03T09:33:49Z</time>
      </trkpt>
      <trkpt lat="45.43479" lon="5.6891">
        <ele>814.85</ele>
        <time>2019-11-03T09:34:07Z</time>
      </trkpt>
      <trkpt lat="45.43453" lon="5.68921">
        <ele>812.93</ele>
        <time>2019-11-03T09:34:25Z</time>
      </trkpt>
      <trkpt lat="45.43428" lon="5.68936">
        <ele>811.97</ele>
        <time>2019-11-03T09:34:44Z</time>
      </trkpt>
      <trkpt lat="45.434" lon="5.68954">
        <ele>810.05</ele>
        <time>2019-11-03T09:35:05Z</time>
      </trkpt>
      <trkpt lat="45.43378" lon="5.6897">
        <ele>810.05</ele>
        <time>2019-11-03T09:35:23Z</time>
      </trkpt>
      <trkpt lat="45.43351" lon="5.68969">
        <ele>809.09</ele>
        <time>2019-11-03T09:35:41Z</time>
      </trkpt>
      <trkpt lat="45.43331" lon="5.68957">
        <ele>809.09</ele>
        <time>2019-11-03T09:35:56Z</time>
      </trkpt>
      <trkpt lat="45.43314" lon="5.68947">
        <ele>809.09</ele>
        <time>2019-11-03T09:36:10Z</time>
      </trkpt>
      <trkpt lat="45.43291" lon="5.68929">
        <ele>809.09</ele>
        <time>2019-11-03T09:36:29Z</time>
      </trkpt>
      <trkpt lat="45.43282" lon="5.68922">
        <ele>810.05</ele>
        <time>2019-11-03T09:36:36Z</time>
      </trkpt>
      <trkpt lat="45.43272" lon="5.68914">
        <ele>811.01</ele>
        <time>2019-11-03T09:36:44Z</time>
      </trkpt>
      <trkpt lat="45.43251" lon="5.68898">
        <ele>810.05</ele>
        <time>2019-11-03T09:37:01Z</time>
      </trkpt>
      <trkpt lat="45.43236" lon="5.68886">
        <ele>810.05</ele>
        <time>2019-11-03T09:37:13Z</time>
      </trkpt>
      <trkpt lat="45.43217" lon="5.68884">
        <ele>809.09</ele>
        <time>2019-11-03T09:37:30Z</time>
      </trkpt>
      <trkpt lat="45.43208" lon="5.68893">
        <ele>807.16</ele>
        <time>2019-11-03T09:37:41Z</time>
      </trkpt>
      <trkpt lat="45.43193" lon="5.68911">
        <ele>804.76</ele>
        <time>2019-11-03T09:37:58Z</time>
      </trkpt>
      <trkpt lat="45.43185" lon="5.68927">
        <ele>803.8</ele>
        <time>2019-11-03T09:38:08Z</time>
      </trkpt>
      <trkpt lat="45.43179" lon="5.68942">
        <ele>801.88</ele>
        <time>2019-11-03T09:38:17Z</time>
      </trkpt>
      <trkpt lat="45.43164" lon="5.68955">
        <ele>799.95</ele>
        <time>2019-11-03T09:38:39Z</time>
      </trkpt>
      <trkpt lat="45.43145" lon="5.68953">
        <ele>799.95</ele>
        <time>2019-11-03T09:38:57Z</time>
      </trkpt>
      <trkpt lat="45.43151" lon="5.68961">
        <ele>798.99</ele>
        <time>2019-11-03T09:39:21Z</time>
      </trkpt>
      <trkpt lat="45.4316" lon="5.68977">
        <ele>799.95</ele>
        <time>2019-11-03T09:39:41Z</time>
      </trkpt>
      <trkpt lat="45.43161" lon="5.68983">
        <ele>800.92</ele>
        <time>2019-11-03T09:39:50Z</time>
      </trkpt>
      <trkpt lat="45.43165" lon="5.69001">
        <ele>800.92</ele>
        <time>2019-11-03T09:40:12Z</time>
      </trkpt>
      <trkpt lat="45.4317" lon="5.69028">
        <ele>799.95</ele>
        <time>2019-11-03T09:40:33Z</time>
      </trkpt>
      <trkpt lat="45.43168" lon="5.69044">
        <ele>799.95</ele>
        <time>2019-11-03T09:40:47Z</time>
      </trkpt>
      <trkpt lat="45.43161" lon="5.6906">
        <ele>799.95</ele>
        <time>2019-11-03T09:41:05Z</time>
      </trkpt>
      <trkpt lat="45.43153" lon="5.69076">
        <ele>798.99</ele>
        <time>2019-11-03T09:41:14Z</time>
      </trkpt>
      <trkpt lat="45.43147" lon="5.69088">
        <ele>798.03</ele>
        <time>2019-11-03T09:41:21Z</time>
      </trkpt>
      <trkpt lat="45.4315" lon="5.69104">
        <ele>797.07</ele>
        <time>2019-11-03T09:41:35Z</time>
      </trkpt>
      <trkpt lat="45.4315" lon="5.69106">
        <ele>797.07</ele>
        <time>2019-11-03T09:41:36Z</time>
      </trkpt>
      <trkpt lat="45.4315" lon="5.6911">
        <ele>797.07</ele>
        <time>2019-11-03T09:41:38Z</time>
      </trkpt>
      <trkpt lat="45.43151" lon="5.69113">
        <ele>797.07</ele>
        <time>2019-11-03T09:41:40Z</time>
      </trkpt>
      <trkpt lat="45.43152" lon="5.6912">
        <ele>797.07</ele>
        <time>2019-11-03T09:41:44Z</time>
      </trkpt>
      <trkpt lat="45.43153" lon="5.69131">
        <ele>796.11</ele>
        <time>2019-11-03T09:41:50Z</time>
      </trkpt>
      <trkpt lat="45.43159" lon="5.69148">
        <ele>795.15</ele>
        <time>2019-11-03T09:42:04Z</time>
      </trkpt>
      <trkpt lat="45.43161" lon="5.69158">
        <ele>794.19</ele>
        <time>2019-11-03T09:42:10Z</time>
      </trkpt>
      <trkpt lat="45.43163" lon="5.69167">
        <ele>794.19</ele>
        <time>2019-11-03T09:42:13Z</time>
      </trkpt>
      <trkpt lat="45.43171" lon="5.69192">
        <ele>794.19</ele>
        <time>2019-11-03T09:42:25Z</time>
      </trkpt>
      <trkpt lat="45.43174" lon="5.69197">
        <ele>794.19</ele>
        <time>2019-11-03T09:42:27Z</time>
      </trkpt>
      <trkpt lat="45.43178" lon="5.69216">
        <ele>795.15</ele>
        <time>2019-11-03T09:42:41Z</time>
      </trkpt>
      <trkpt lat="45.43182" lon="5.69229">
        <ele>794.19</ele>
        <time>2019-11-03T09:42:48Z</time>
      </trkpt>
      <trkpt lat="45.43191" lon="5.6925">
        <ele>794.19</ele>
        <time>2019-11-03T09:43:02Z</time>
      </trkpt>
      <trkpt lat="45.43199" lon="5.6929">
        <ele>795.15</ele>
        <time>2019-11-03T09:43:24Z</time>
      </trkpt>
      <trkpt lat="45.43199" lon="5.69318">
        <ele>794.19</ele>
        <time>2019-11-03T09:43:39Z</time>
      </trkpt>
      <trkpt lat="45.43193" lon="5.69335">
        <ele>791.78</ele>
        <time>2019-11-03T09:43:49Z</time>
      </trkpt>
      <trkpt lat="45.43172" lon="5.69356">
        <ele>790.82</ele>
        <time>2019-11-03T09:44:06Z</time>
      </trkpt>
      <trkpt lat="45.43168" lon="5.69358">
        <ele>791.78</ele>
        <time>2019-11-03T09:44:10Z</time>
      </trkpt>
      <trkpt lat="45.43163" lon="5.6936">
        <ele>790.82</ele>
        <time>2019-11-03T09:44:18Z</time>
      </trkpt>
      <trkpt lat="45.4314" lon="5.69356">
        <ele>790.82</ele>
        <time>2019-11-03T09:44:33Z</time>
      </trkpt>
      <trkpt lat="45.43119" lon="5.69356">
        <ele>790.82</ele>
        <time>2019-11-03T09:44:49Z</time>
      </trkpt>
      <trkpt lat="45.43103" lon="5.69356">
        <ele>789.86</ele>
        <time>2019-11-03T09:45:00Z</time>
      </trkpt>
      <trkpt lat="45.43084" lon="5.6935">
        <ele>788.9</ele>
        <time>2019-11-03T09:45:14Z</time>
      </trkpt>
      <trkpt lat="45.43078" lon="5.69349">
        <ele>787.94</ele>
        <time>2019-11-03T09:45:29Z</time>
      </trkpt>
      <trkpt lat="45.43075" lon="5.69347">
        <ele>787.94</ele>
        <time>2019-11-03T09:45:36Z</time>
      </trkpt>
      <trkpt lat="45.43064" lon="5.69345">
        <ele>786.02</ele>
        <time>2019-11-03T09:45:45Z</time>
      </trkpt>
      <trkpt lat="45.43061" lon="5.69343">
        <ele>785.05</ele>
        <time>2019-11-03T09:45:49Z</time>
      </trkpt>
      <trkpt lat="45.43047" lon="5.69337">
        <ele>786.02</ele>
        <time>2019-11-03T09:45:59Z</time>
      </trkpt>
      <trkpt lat="45.43042" lon="5.6934">
        <ele>785.05</ele>
        <time>2019-11-03T09:46:03Z</time>
      </trkpt>
      <trkpt lat="45.43031" lon="5.69336">
        <ele>785.05</ele>
        <time>2019-11-03T09:46:12Z</time>
      </trkpt>
      <trkpt lat="45.4301" lon="5.69326">
        <ele>782.17</ele>
        <time>2019-11-03T09:46:30Z</time>
      </trkpt>
      <trkpt lat="45.42988" lon="5.69316">
        <ele>779.77</ele>
        <time>2019-11-03T09:46:44Z</time>
      </trkpt>
      <trkpt lat="45.42971" lon="5.69307">
        <ele>776.88</ele>
        <time>2019-11-03T09:46:56Z</time>
      </trkpt>
      <trkpt lat="45.42955" lon="5.69297">
        <ele>775.92</ele>
        <time>2019-11-03T09:47:10Z</time>
      </trkpt>
      <trkpt lat="45.42848" lon="5.6925">
        <ele>756.21</ele>
        <time>2019-11-03T10:02:54Z</time>
      </trkpt>
      <trkpt lat="45.42836" lon="5.69238">
        <ele>754.77</ele>
        <time>2019-11-03T10:03:07Z</time>
      </trkpt>
      <trkpt lat="45.42822" lon="5.69223">
        <ele>751.89</ele>
        <time>2019-11-03T10:03:22Z</time>
      </trkpt>
      <trkpt lat="45.42818" lon="5.69221">
        <ele>751.89</ele>
        <time>2019-11-03T10:03:50Z</time>
      </trkpt>
      <trkpt lat="45.4282" lon="5.6922">
        <ele>751.89</ele>
        <time>2019-11-03T10:04:12Z</time>
      </trkpt>
      <trkpt lat="45.42823" lon="5.69217">
        <ele>751.89</ele>
        <time>2019-11-03T10:04:37Z</time>
      </trkpt>
      <trkpt lat="45.42823" lon="5.69221">
        <ele>751.89</ele>
        <time>2019-11-03T10:05:08Z</time>
      </trkpt>
      <trkpt lat="45.42824" lon="5.69223">
        <ele>751.89</ele>
        <time>2019-11-03T10:05:13Z</time>
      </trkpt>
      <trkpt lat="45.42812" lon="5.69214">
        <ele>751.89</ele>
        <time>2019-11-03T10:05:21Z</time>
      </trkpt>
      <trkpt lat="45.42798" lon="5.69204">
        <ele>749.97</ele>
        <time>2019-11-03T10:05:36Z</time>
      </trkpt>
      <trkpt lat="45.42775" lon="5.6919">
        <ele>748.04</ele>
        <time>2019-11-03T10:05:52Z</time>
      </trkpt>
      <trkpt lat="45.42748" lon="5.6917">
        <ele>744.2</ele>
        <time>2019-11-03T10:06:13Z</time>
      </trkpt>
      <trkpt lat="45.42732" lon="5.69164">
        <ele>743.24</ele>
        <time>2019-11-03T10:06:32Z</time>
      </trkpt>
      <trkpt lat="45.42727" lon="5.69156">
        <ele>743.24</ele>
        <time>2019-11-03T10:06:41Z</time>
      </trkpt>
      <trkpt lat="45.4272" lon="5.69134">
        <ele>741.79</ele>
        <time>2019-11-03T10:06:54Z</time>
      </trkpt>
      <trkpt lat="45.4272" lon="5.69133">
        <ele>741.79</ele>
        <time>2019-11-03T10:06:55Z</time>
      </trkpt>
      <trkpt lat="45.42719" lon="5.69105">
        <ele>741.79</ele>
        <time>2019-11-03T10:07:13Z</time>
      </trkpt>
      <trkpt lat="45.42715" lon="5.69078">
        <ele>740.83</ele>
        <time>2019-11-03T10:07:27Z</time>
      </trkpt>
      <trkpt lat="45.42707" lon="5.69045">
        <ele>739.87</ele>
        <time>2019-11-03T10:07:46Z</time>
      </trkpt>
      <trkpt lat="45.42699" lon="5.69021">
        <ele>739.87</ele>
        <time>2019-11-03T10:07:58Z</time>
      </trkpt>
      <trkpt lat="45.42679" lon="5.68998">
        <ele>739.87</ele>
        <time>2019-11-03T10:08:13Z</time>
      </trkpt>
      <trkpt lat="45.42665" lon="5.68989">
        <ele>738.91</ele>
        <time>2019-11-03T10:08:25Z</time>
      </trkpt>
      <trkpt lat="45.42656" lon="5.6899">
        <ele>749.97</ele>
        <time>2019-11-03T11:56:02Z</time>
      </trkpt>
      <trkpt lat="45.42653" lon="5.68988">
        <ele>749.97</ele>
        <time>2019-11-03T11:56:49Z</time>
      </trkpt>
      <trkpt lat="45.42656" lon="5.68996">
        <ele>749.97</ele>
        <time>2019-11-03T11:57:15Z</time>
      </trkpt>
      <trkpt lat="45.42656" lon="5.68996">
        <ele>744.2</ele>
        <time>2019-11-03T11:57:19Z</time>
      </trkpt>
      <trkpt lat="45.42656" lon="5.68996">
        <ele>747.08</ele>
        <time>2019-11-03T11:57:20Z</time>
      </trkpt>
      <trkpt lat="45.42656" lon="5.68996">
        <ele>751.89</ele>
        <time>2019-11-03T11:57:24Z</time>
      </trkpt>
      <trkpt lat="45.42656" lon="5.68996">
        <ele>750.93</ele>
        <time>2019-11-03T11:57:25Z</time>
      </trkpt>
      <trkpt lat="45.42656" lon="5.68996">
        <ele>750.93</ele>
        <time>2019-11-03T11:57:49Z</time>
      </trkpt>
      <trkpt lat="45.4266" lon="5.68998">
        <ele>750.93</ele>
        <time>2019-11-03T11:58:13Z</time>
      </trkpt>
      <trkpt lat="45.42661" lon="5.68995">
        <ele>750.93</ele>
        <time>2019-11-03T11:58:38Z</time>
      </trkpt>
      <trkpt lat="45.42663" lon="5.68993">
        <ele>751.89</ele>
        <time>2019-11-03T11:59:05Z</time>
      </trkpt>
      <trkpt lat="45.42663" lon="5.6899">
        <ele>750.93</ele>
        <time>2019-11-03T11:59:31Z</time>
      </trkpt>
      <trkpt lat="45.42662" lon="5.68982">
        <ele>750.93</ele>
        <time>2019-11-03T11:59:40Z</time>
      </trkpt>
      <trkpt lat="45.42663" lon="5.68979">
        <ele>750.93</ele>
        <time>2019-11-03T11:59:42Z</time>
      </trkpt>
      <trkpt lat="45.42665" lon="5.68974">
        <ele>750.93</ele>
        <time>2019-11-03T11:59:46Z</time>
      </trkpt>
      <trkpt lat="45.42668" lon="5.68962">
        <ele>750.93</ele>
        <time>2019-11-03T11:59:54Z</time>
      </trkpt>
      <trkpt lat="45.42669" lon="5.68947">
        <ele>751.89</ele>
        <time>2019-11-03T12:00:01Z</time>
      </trkpt>
      <trkpt lat="45.42667" lon="5.68926">
        <ele>751.89</ele>
        <time>2019-11-03T12:00:15Z</time>
      </trkpt>
      <trkpt lat="45.42667" lon="5.68913">
        <ele>751.89</ele>
        <time>2019-11-03T12:00:23Z</time>
      </trkpt>
      <trkpt lat="45.42666" lon="5.68893">
        <ele>752.85</ele>
        <time>2019-11-03T12:00:37Z</time>
      </trkpt>
      <trkpt lat="45.42666" lon="5.68885">
        <ele>752.85</ele>
        <time>2019-11-03T12:00:42Z</time>
      </trkpt>
      <trkpt lat="45.42665" lon="5.68877">
        <ele>754.77</ele>
        <time>2019-11-03T12:00:49Z</time>
      </trkpt>
      <trkpt lat="45.42665" lon="5.68862">
        <ele>754.77</ele>
        <time>2019-11-03T12:00:59Z</time>
      </trkpt>
      <trkpt lat="45.42665" lon="5.68854">
        <ele>756.21</ele>
        <time>2019-11-03T12:01:05Z</time>
      </trkpt>
      <trkpt lat="45.42662" lon="5.68831">
        <ele>758.14</ele>
        <time>2019-11-03T12:01:21Z</time>
      </trkpt>
      <trkpt lat="45.42662" lon="5.68827">
        <ele>759.1</ele>
        <time>2019-11-03T12:01:24Z</time>
      </trkpt>
      <trkpt lat="45.4266" lon="5.68806">
        <ele>761.98</ele>
        <time>2019-11-03T12:01:38Z</time>
      </trkpt>
      <trkpt lat="45.4266" lon="5.68803">
        <ele>761.98</ele>
        <time>2019-11-03T12:01:40Z</time>
      </trkpt>
      <trkpt lat="45.4266" lon="5.68787">
        <ele>762.94</ele>
        <time>2019-11-03T12:01:51Z</time>
      </trkpt>
      <trkpt lat="45.42651" lon="5.68771">
        <ele>765.83</ele>
        <time>2019-11-03T12:02:04Z</time>
      </trkpt>
      <trkpt lat="45.42644" lon="5.68763">
        <ele>768.23</ele>
        <time>2019-11-03T12:02:14Z</time>
      </trkpt>
      <trkpt lat="45.42643" lon="5.68745">
        <ele>770.15</ele>
        <time>2019-11-03T12:02:25Z</time>
      </trkpt>
      <trkpt lat="45.42643" lon="5.68731">
        <ele>772.08</ele>
        <time>2019-11-03T12:02:32Z</time>
      </trkpt>
      <trkpt lat="45.4264" lon="5.68722">
        <ele>772.08</ele>
        <time>2019-11-03T12:02:37Z</time>
      </trkpt>
      <trkpt lat="45.42634" lon="5.68709">
        <ele>772.08</ele>
        <time>2019-11-03T12:02:45Z</time>
      </trkpt>
      <trkpt lat="45.4263" lon="5.68695">
        <ele>772.08</ele>
        <time>2019-11-03T12:02:56Z</time>
      </trkpt>
      <trkpt lat="45.42629" lon="5.68694">
        <ele>772.08</ele>
        <time>2019-11-03T12:02:57Z</time>
      </trkpt>
      <trkpt lat="45.42627" lon="5.68691">
        <ele>772.08</ele>
        <time>2019-11-03T12:03:00Z</time>
      </trkpt>
      <trkpt lat="45.4262" lon="5.68688">
        <ele>772.08</ele>
        <time>2019-11-03T12:03:05Z</time>
      </trkpt>
      <trkpt lat="45.42611" lon="5.68684">
        <ele>771.11</ele>
        <time>2019-11-03T12:03:13Z</time>
      </trkpt>
      <trkpt lat="45.42609" lon="5.68681">
        <ele>771.11</ele>
        <time>2019-11-03T12:03:15Z</time>
      </trkpt>
      <trkpt lat="45.42604" lon="5.6867">
        <ele>771.11</ele>
        <time>2019-11-03T12:03:23Z</time>
      </trkpt>
      <trkpt lat="45.426" lon="5.68657">
        <ele>771.11</ele>
        <time>2019-11-03T12:03:30Z</time>
      </trkpt>
      <trkpt lat="45.42595" lon="5.68637">
        <ele>771.11</ele>
        <time>2019-11-03T12:03:41Z</time>
      </trkpt>
      <trkpt lat="45.42593" lon="5.68635">
        <ele>771.11</ele>
        <time>2019-11-03T12:03:43Z</time>
      </trkpt>
      <trkpt lat="45.42584" lon="5.68611">
        <ele>770.15</ele>
        <time>2019-11-03T12:03:59Z</time>
      </trkpt>
      <trkpt lat="45.42583" lon="5.68609">
        <ele>770.15</ele>
        <time>2019-11-03T12:04:00Z</time>
      </trkpt>
      <trkpt lat="45.42579" lon="5.68603">
        <ele>771.11</ele>
        <time>2019-11-03T12:04:06Z</time>
      </trkpt>
      <trkpt lat="45.42575" lon="5.68598">
        <ele>771.11</ele>
        <time>2019-11-03T12:04:11Z</time>
      </trkpt>
      <trkpt lat="45.42573" lon="5.68594">
        <ele>771.11</ele>
        <time>2019-11-03T12:04:14Z</time>
      </trkpt>
      <trkpt lat="45.42569" lon="5.68587">
        <ele>772.08</ele>
        <time>2019-11-03T12:04:19Z</time>
      </trkpt>
      <trkpt lat="45.42563" lon="5.68576">
        <ele>772.08</ele>
        <time>2019-11-03T12:04:32Z</time>
      </trkpt>
      <trkpt lat="45.4256" lon="5.68574">
        <ele>773.04</ele>
        <time>2019-11-03T12:04:36Z</time>
      </trkpt>
      <trkpt lat="45.42542" lon="5.68564">
        <ele>772.08</ele>
        <time>2019-11-03T12:04:50Z</time>
      </trkpt>
      <trkpt lat="45.42535" lon="5.6855">
        <ele>774.96</ele>
        <time>2019-11-03T12:05:00Z</time>
      </trkpt>
      <trkpt lat="45.42532" lon="5.68547">
        <ele>772.08</ele>
        <time>2019-11-03T12:05:03Z</time>
      </trkpt>
      <trkpt lat="45.42519" lon="5.68539">
        <ele>772.08</ele>
        <time>2019-11-03T12:05:13Z</time>
      </trkpt>
      <trkpt lat="45.42512" lon="5.68526">
        <ele>773.04</ele>
        <time>2019-11-03T12:05:25Z</time>
      </trkpt>
      <trkpt lat="45.42507" lon="5.68522">
        <ele>775.92</ele>
        <time>2019-11-03T12:05:29Z</time>
      </trkpt>
      <trkpt lat="45.42491" lon="5.68516">
        <ele>775.92</ele>
        <time>2019-11-03T12:05:39Z</time>
      </trkpt>
      <trkpt lat="45.42471" lon="5.68504">
        <ele>774.96</ele>
        <time>2019-11-03T12:05:53Z</time>
      </trkpt>
      <trkpt lat="45.4247" lon="5.68504">
        <ele>774.96</ele>
        <time>2019-11-03T12:05:54Z</time>
      </trkpt>
      <trkpt lat="45.42457" lon="5.685">
        <ele>774</ele>
        <time>2019-11-03T12:06:05Z</time>
      </trkpt>
      <trkpt lat="45.42456" lon="5.68498">
        <ele>774</ele>
        <time>2019-11-03T12:06:07Z</time>
      </trkpt>
      <trkpt lat="45.42437" lon="5.68481">
        <ele>772.08</ele>
        <time>2019-11-03T12:06:22Z</time>
      </trkpt>
      <trkpt lat="45.42435" lon="5.6848">
        <ele>772.08</ele>
        <time>2019-11-03T12:06:24Z</time>
      </trkpt>
      <trkpt lat="45.42418" lon="5.68466">
        <ele>770.15</ele>
        <time>2019-11-03T12:06:41Z</time>
      </trkpt>
      <trkpt lat="45.42416" lon="5.68466">
        <ele>770.15</ele>
        <time>2019-11-03T12:06:42Z</time>
      </trkpt>
      <trkpt lat="45.42406" lon="5.68462">
        <ele>770.15</ele>
        <time>2019-11-03T12:06:51Z</time>
      </trkpt>
      <trkpt lat="45.42388" lon="5.68455">
        <ele>769.19</ele>
        <time>2019-11-03T12:07:03Z</time>
      </trkpt>
      <trkpt lat="45.42382" lon="5.68452">
        <ele>769.19</ele>
        <time>2019-11-03T12:07:06Z</time>
      </trkpt>
      <trkpt lat="45.42364" lon="5.68444">
        <ele>769.19</ele>
        <time>2019-11-03T12:07:19Z</time>
      </trkpt>
      <trkpt lat="45.42356" lon="5.68431">
        <ele>768.23</ele>
        <time>2019-11-03T12:07:30Z</time>
      </trkpt>
      <trkpt lat="45.42353" lon="5.68421">
        <ele>768.23</ele>
        <time>2019-11-03T12:07:35Z</time>
      </trkpt>
      <trkpt lat="45.42342" lon="5.68399">
        <ele>770.15</ele>
        <time>2019-11-03T12:07:48Z</time>
      </trkpt>
      <trkpt lat="45.42329" lon="5.68377">
        <ele>769.19</ele>
        <time>2019-11-03T12:08:05Z</time>
      </trkpt>
      <trkpt lat="45.42322" lon="5.68368">
        <ele>768.23</ele>
        <time>2019-11-03T12:08:14Z</time>
      </trkpt>
      <trkpt lat="45.42315" lon="5.68363">
        <ele>766.79</ele>
        <time>2019-11-03T12:08:20Z</time>
      </trkpt>
      <trkpt lat="45.42307" lon="5.68357">
        <ele>766.79</ele>
        <time>2019-11-03T12:08:27Z</time>
      </trkpt>
      <trkpt lat="45.42297" lon="5.6835">
        <ele>765.83</ele>
        <time>2019-11-03T12:08:35Z</time>
      </trkpt>
      <trkpt lat="45.42294" lon="5.68344">
        <ele>765.83</ele>
        <time>2019-11-03T12:08:39Z</time>
      </trkpt>
      <trkpt lat="45.42291" lon="5.6834">
        <ele>766.79</ele>
        <time>2019-11-03T12:08:43Z</time>
      </trkpt>
      <trkpt lat="45.42288" lon="5.68326">
        <ele>766.79</ele>
        <time>2019-11-03T12:08:58Z</time>
      </trkpt>
      <trkpt lat="45.42274" lon="5.68301">
        <ele>769.19</ele>
        <time>2019-11-03T12:09:13Z</time>
      </trkpt>
      <trkpt lat="45.42272" lon="5.68297">
        <ele>768.23</ele>
        <time>2019-11-03T12:09:16Z</time>
      </trkpt>
      <trkpt lat="45.42271" lon="5.68294">
        <ele>768.23</ele>
        <time>2019-11-03T12:09:19Z</time>
      </trkpt>
      <trkpt lat="45.4227" lon="5.6829">
        <ele>768.23</ele>
        <time>2019-11-03T12:09:21Z</time>
      </trkpt>
      <trkpt lat="45.42266" lon="5.68281">
        <ele>766.79</ele>
        <time>2019-11-03T12:09:27Z</time>
      </trkpt>
      <trkpt lat="45.42261" lon="5.6826">
        <ele>765.83</ele>
        <time>2019-11-03T12:09:39Z</time>
      </trkpt>
      <trkpt lat="45.42261" lon="5.68243">
        <ele>768.23</ele>
        <time>2019-11-03T12:09:49Z</time>
      </trkpt>
      <trkpt lat="45.4226" lon="5.68234">
        <ele>770.15</ele>
        <time>2019-11-03T12:10:09Z</time>
      </trkpt>
      <trkpt lat="45.42266" lon="5.68228">
        <ele>771.11</ele>
        <time>2019-11-03T12:10:23Z</time>
      </trkpt>
      <trkpt lat="45.42277" lon="5.68226">
        <ele>772.08</ele>
        <time>2019-11-03T12:10:37Z</time>
      </trkpt>
      <trkpt lat="45.42279" lon="5.68227">
        <ele>773.04</ele>
        <time>2019-11-03T12:10:40Z</time>
      </trkpt>
      <trkpt lat="45.42282" lon="5.68227">
        <ele>773.04</ele>
        <time>2019-11-03T12:10:42Z</time>
      </trkpt>
      <trkpt lat="45.42306" lon="5.68222">
        <ele>774.96</ele>
        <time>2019-11-03T12:11:02Z</time>
      </trkpt>
      <trkpt lat="45.42318" lon="5.68214">
        <ele>778.81</ele>
        <time>2019-11-03T12:11:23Z</time>
      </trkpt>
      <trkpt lat="45.42324" lon="5.68204">
        <ele>782.17</ele>
        <time>2019-11-03T12:11:37Z</time>
      </trkpt>
      <trkpt lat="45.42325" lon="5.68202">
        <ele>782.17</ele>
        <time>2019-11-03T12:11:39Z</time>
      </trkpt>
      <trkpt lat="45.42333" lon="5.68193">
        <ele>784.09</ele>
        <time>2019-11-03T12:11:48Z</time>
      </trkpt>
      <trkpt lat="45.42336" lon="5.68178">
        <ele>786.98</ele>
        <time>2019-11-03T12:12:07Z</time>
      </trkpt>
      <trkpt lat="45.42341" lon="5.68163">
        <ele>788.9</ele>
        <time>2019-11-03T12:12:13Z</time>
      </trkpt>
      <trkpt lat="45.42347" lon="5.68152">
        <ele>790.82</ele>
        <time>2019-11-03T12:12:25Z</time>
      </trkpt>
      <trkpt lat="45.42346" lon="5.68148">
        <ele>790.82</ele>
        <time>2019-11-03T12:12:28Z</time>
      </trkpt>
      <trkpt lat="45.42329" lon="5.6812">
        <ele>790.82</ele>
        <time>2019-11-03T12:12:48Z</time>
      </trkpt>
      <trkpt lat="45.42328" lon="5.68099">
        <ele>790.82</ele>
        <time>2019-11-03T12:13:00Z</time>
      </trkpt>
      <trkpt lat="45.42329" lon="5.68091">
        <ele>791.78</ele>
        <time>2019-11-03T12:13:06Z</time>
      </trkpt>
      <trkpt lat="45.42328" lon="5.68087">
        <ele>791.78</ele>
        <time>2019-11-03T12:13:08Z</time>
      </trkpt>
      <trkpt lat="45.42323" lon="5.68069">
        <ele>793.22</ele>
        <time>2019-11-03T12:13:21Z</time>
      </trkpt>
      <trkpt lat="45.42313" lon="5.68041">
        <ele>794.19</ele>
        <time>2019-11-03T12:13:40Z</time>
      </trkpt>
      <trkpt lat="45.42308" lon="5.68019">
        <ele>796.11</ele>
        <time>2019-11-03T12:13:56Z</time>
      </trkpt>
      <trkpt lat="45.42297" lon="5.67989">
        <ele>797.07</ele>
        <time>2019-11-03T12:14:15Z</time>
      </trkpt>
      <trkpt lat="45.42296" lon="5.6798">
        <ele>798.03</ele>
        <time>2019-11-03T12:14:21Z</time>
      </trkpt>
      <trkpt lat="45.42295" lon="5.67976">
        <ele>798.03</ele>
        <time>2019-11-03T12:14:23Z</time>
      </trkpt>
      <trkpt lat="45.42294" lon="5.67972">
        <ele>798.03</ele>
        <time>2019-11-03T12:14:26Z</time>
      </trkpt>
      <trkpt lat="45.42293" lon="5.67944">
        <ele>800.92</ele>
        <time>2019-11-03T12:14:47Z</time>
      </trkpt>
      <trkpt lat="45.42293" lon="5.67929">
        <ele>801.88</ele>
        <time>2019-11-03T12:14:56Z</time>
      </trkpt>
      <trkpt lat="45.42291" lon="5.67908">
        <ele>804.76</ele>
        <time>2019-11-03T12:15:09Z</time>
      </trkpt>
      <trkpt lat="45.4229" lon="5.67905">
        <ele>804.76</ele>
        <time>2019-11-03T12:15:11Z</time>
      </trkpt>
      <trkpt lat="45.42281" lon="5.67889">
        <ele>806.2</ele>
        <time>2019-11-03T12:15:24Z</time>
      </trkpt>
      <trkpt lat="45.42276" lon="5.67872">
        <ele>807.16</ele>
        <time>2019-11-03T12:15:31Z</time>
      </trkpt>
      <trkpt lat="45.42271" lon="5.67863">
        <ele>807.16</ele>
        <time>2019-11-03T12:15:36Z</time>
      </trkpt>
      <trkpt lat="45.42268" lon="5.67857">
        <ele>807.16</ele>
        <time>2019-11-03T12:15:39Z</time>
      </trkpt>
      <trkpt lat="45.42263" lon="5.6785">
        <ele>806.2</ele>
        <time>2019-11-03T12:15:44Z</time>
      </trkpt>
      <trkpt lat="45.42252" lon="5.6783">
        <ele>804.76</ele>
        <time>2019-11-03T12:16:00Z</time>
      </trkpt>
      <trkpt lat="45.42244" lon="5.67825">
        <ele>803.8</ele>
        <time>2019-11-03T12:16:07Z</time>
      </trkpt>
      <trkpt lat="45.4223" lon="5.67809">
        <ele>802.84</ele>
        <time>2019-11-03T12:16:21Z</time>
      </trkpt>
      <trkpt lat="45.42227" lon="5.678">
        <ele>802.84</ele>
        <time>2019-11-03T12:16:26Z</time>
      </trkpt>
      <trkpt lat="45.42222" lon="5.67774">
        <ele>803.8</ele>
        <time>2019-11-03T12:16:43Z</time>
      </trkpt>
      <trkpt lat="45.42221" lon="5.67772">
        <ele>803.8</ele>
        <time>2019-11-03T12:16:44Z</time>
      </trkpt>
      <trkpt lat="45.42212" lon="5.67757">
        <ele>804.76</ele>
        <time>2019-11-03T12:16:55Z</time>
      </trkpt>
      <trkpt lat="45.42211" lon="5.67756">
        <ele>804.76</ele>
        <time>2019-11-03T12:16:56Z</time>
      </trkpt>
      <trkpt lat="45.42208" lon="5.67752">
        <ele>804.76</ele>
        <time>2019-11-03T12:17:00Z</time>
      </trkpt>
      <trkpt lat="45.42203" lon="5.67734">
        <ele>804.76</ele>
        <time>2019-11-03T12:17:11Z</time>
      </trkpt>
      <trkpt lat="45.42195" lon="5.67714">
        <ele>804.76</ele>
        <time>2019-11-03T12:17:23Z</time>
      </trkpt>
      <trkpt lat="45.42193" lon="5.67709">
        <ele>806.2</ele>
        <time>2019-11-03T12:17:28Z</time>
      </trkpt>
      <trkpt lat="45.42187" lon="5.67702">
        <ele>806.2</ele>
        <time>2019-11-03T12:17:36Z</time>
      </trkpt>
      <trkpt lat="45.42183" lon="5.67696">
        <ele>806.2</ele>
        <time>2019-11-03T12:17:41Z</time>
      </trkpt>
      <trkpt lat="45.42175" lon="5.67679">
        <ele>804.76</ele>
        <time>2019-11-03T12:17:52Z</time>
      </trkpt>
      <trkpt lat="45.42165" lon="5.67655">
        <ele>804.76</ele>
        <time>2019-11-03T12:18:05Z</time>
      </trkpt>
      <trkpt lat="45.42156" lon="5.67637">
        <ele>804.76</ele>
        <time>2019-11-03T12:18:17Z</time>
      </trkpt>
      <trkpt lat="45.42149" lon="5.67619">
        <ele>806.2</ele>
        <time>2019-11-03T12:18:32Z</time>
      </trkpt>
      <trkpt lat="45.42145" lon="5.67612">
        <ele>806.2</ele>
        <time>2019-11-03T12:18:44Z</time>
      </trkpt>
      <trkpt lat="45.42139" lon="5.67595">
        <ele>803.8</ele>
        <time>2019-11-03T12:18:55Z</time>
      </trkpt>
      <trkpt lat="45.42135" lon="5.6757">
        <ele>800.92</ele>
        <time>2019-11-03T12:19:10Z</time>
      </trkpt>
      <trkpt lat="45.42135" lon="5.67556">
        <ele>800.92</ele>
        <time>2019-11-03T12:19:18Z</time>
      </trkpt>
      <trkpt lat="45.42136" lon="5.67553">
        <ele>799.95</ele>
        <time>2019-11-03T12:19:20Z</time>
      </trkpt>
      <trkpt lat="45.42138" lon="5.6754">
        <ele>798.99</ele>
        <time>2019-11-03T12:19:27Z</time>
      </trkpt>
      <trkpt lat="45.42137" lon="5.67533">
        <ele>798.99</ele>
        <time>2019-11-03T12:19:30Z</time>
      </trkpt>
      <trkpt lat="45.42139" lon="5.67509">
        <ele>797.07</ele>
        <time>2019-11-03T12:19:43Z</time>
      </trkpt>
      <trkpt lat="45.42134" lon="5.67481">
        <ele>796.11</ele>
        <time>2019-11-03T12:19:57Z</time>
      </trkpt>
      <trkpt lat="45.42134" lon="5.67479">
        <ele>796.11</ele>
        <time>2019-11-03T12:19:58Z</time>
      </trkpt>
      <trkpt lat="45.42137" lon="5.67456">
        <ele>795.15</ele>
        <time>2019-11-03T12:20:11Z</time>
      </trkpt>
      <trkpt lat="45.42138" lon="5.67451">
        <ele>794.19</ele>
        <time>2019-11-03T12:20:13Z</time>
      </trkpt>
      <trkpt lat="45.42147" lon="5.67435">
        <ele>793.22</ele>
        <time>2019-11-03T12:20:23Z</time>
      </trkpt>
      <trkpt lat="45.42158" lon="5.67412">
        <ele>790.82</ele>
        <time>2019-11-03T12:20:41Z</time>
      </trkpt>
      <trkpt lat="45.42162" lon="5.67406">
        <ele>790.82</ele>
        <time>2019-11-03T12:20:45Z</time>
      </trkpt>
      <trkpt lat="45.42172" lon="5.67384">
        <ele>788.9</ele>
        <time>2019-11-03T12:20:58Z</time>
      </trkpt>
      <trkpt lat="45.42177" lon="5.67356">
        <ele>787.94</ele>
        <time>2019-11-03T12:21:12Z</time>
      </trkpt>
      <trkpt lat="45.42181" lon="5.67326">
        <ele>787.94</ele>
        <time>2019-11-03T12:21:27Z</time>
      </trkpt>
      <trkpt lat="45.42182" lon="5.67317">
        <ele>787.94</ele>
        <time>2019-11-03T12:21:37Z</time>
      </trkpt>
      <trkpt lat="45.42175" lon="5.67295">
        <ele>786.02</ele>
        <time>2019-11-03T12:21:49Z</time>
      </trkpt>
      <trkpt lat="45.42168" lon="5.67263">
        <ele>783.13</ele>
        <time>2019-11-03T12:22:07Z</time>
      </trkpt>
      <trkpt lat="45.42167" lon="5.67252">
        <ele>782.17</ele>
        <time>2019-11-03T12:22:14Z</time>
      </trkpt>
      <trkpt lat="45.4217" lon="5.67245">
        <ele>781.21</ele>
        <time>2019-11-03T12:22:20Z</time>
      </trkpt>
      <trkpt lat="45.42167" lon="5.67233">
        <ele>779.77</ele>
        <time>2019-11-03T12:22:26Z</time>
      </trkpt>
      <trkpt lat="45.42163" lon="5.67227">
        <ele>779.77</ele>
        <time>2019-11-03T12:22:30Z</time>
      </trkpt>
      <trkpt lat="45.42152" lon="5.67224">
        <ele>777.84</ele>
        <time>2019-11-03T12:22:42Z</time>
      </trkpt>
      <trkpt lat="45.42143" lon="5.67218">
        <ele>774.96</ele>
        <time>2019-11-03T12:22:53Z</time>
      </trkpt>
      <trkpt lat="45.42148" lon="5.67193">
        <ele>772.08</ele>
        <time>2019-11-03T12:23:08Z</time>
      </trkpt>
      <trkpt lat="45.42157" lon="5.67164">
        <ele>770.15</ele>
        <time>2019-11-03T12:23:25Z</time>
      </trkpt>
      <trkpt lat="45.4217" lon="5.67165">
        <ele>766.79</ele>
        <time>2019-11-03T12:23:40Z</time>
      </trkpt>
      <trkpt lat="45.42184" lon="5.67172">
        <ele>765.83</ele>
        <time>2019-11-03T12:23:55Z</time>
      </trkpt>
      <trkpt lat="45.42201" lon="5.67179">
        <ele>765.83</ele>
        <time>2019-11-03T12:24:08Z</time>
      </trkpt>
      <trkpt lat="45.42224" lon="5.67173">
        <ele>765.83</ele>
        <time>2019-11-03T12:24:28Z</time>
      </trkpt>
      <trkpt lat="45.42249" lon="5.67169">
        <ele>764.87</ele>
        <time>2019-11-03T12:24:45Z</time>
      </trkpt>
      <trkpt lat="45.42253" lon="5.67171">
        <ele>764.87</ele>
        <time>2019-11-03T12:24:49Z</time>
      </trkpt>
      <trkpt lat="45.42267" lon="5.67191">
        <ele>766.79</ele>
        <time>2019-11-03T12:25:09Z</time>
      </trkpt>
      <trkpt lat="45.42287" lon="5.67199">
        <ele>769.19</ele>
        <time>2019-11-03T12:25:30Z</time>
      </trkpt>
      <trkpt lat="45.42301" lon="5.67208">
        <ele>773.04</ele>
        <time>2019-11-03T12:25:46Z</time>
      </trkpt>
      <trkpt lat="45.42304" lon="5.6721">
        <ele>773.04</ele>
        <time>2019-11-03T12:25:49Z</time>
      </trkpt>
      <trkpt lat="45.42319" lon="5.67216">
        <ele>775.92</ele>
        <time>2019-11-03T12:26:07Z</time>
      </trkpt>
      <trkpt lat="45.42324" lon="5.67213">
        <ele>775.92</ele>
        <time>2019-11-03T12:26:13Z</time>
      </trkpt>
      <trkpt lat="45.42341" lon="5.67205">
        <ele>778.81</ele>
        <time>2019-11-03T12:26:31Z</time>
      </trkpt>
      <trkpt lat="45.42354" lon="5.67196">
        <ele>782.17</ele>
        <time>2019-11-03T12:26:48Z</time>
      </trkpt>
      <trkpt lat="45.42365" lon="5.67194">
        <ele>785.05</ele>
        <time>2019-11-03T12:27:03Z</time>
      </trkpt>
      <trkpt lat="45.42366" lon="5.67195">
        <ele>785.05</ele>
        <time>2019-11-03T12:27:04Z</time>
      </trkpt>
      <trkpt lat="45.42376" lon="5.67209">
        <ele>786.02</ele>
        <time>2019-11-03T12:27:16Z</time>
      </trkpt>
      <trkpt lat="45.42386" lon="5.6722">
        <ele>786.98</ele>
        <time>2019-11-03T12:27:26Z</time>
      </trkpt>
      <trkpt lat="45.42396" lon="5.67223">
        <ele>788.9</ele>
        <time>2019-11-03T12:27:35Z</time>
      </trkpt>
      <trkpt lat="45.42411" lon="5.67228">
        <ele>789.86</ele>
        <time>2019-11-03T12:27:48Z</time>
      </trkpt>
      <trkpt lat="45.42428" lon="5.67215">
        <ele>791.78</ele>
        <time>2019-11-03T12:28:05Z</time>
      </trkpt>
      <trkpt lat="45.42436" lon="5.67214">
        <ele>793.22</ele>
        <time>2019-11-03T12:28:12Z</time>
      </trkpt>
      <trkpt lat="45.4246" lon="5.67218">
        <ele>797.07</ele>
        <time>2019-11-03T12:28:33Z</time>
      </trkpt>
      <trkpt lat="45.42472" lon="5.67217">
        <ele>798.03</ele>
        <time>2019-11-03T12:28:46Z</time>
      </trkpt>
      <trkpt lat="45.42482" lon="5.6721">
        <ele>798.99</ele>
        <time>2019-11-03T12:28:57Z</time>
      </trkpt>
      <trkpt lat="45.42488" lon="5.67204">
        <ele>800.92</ele>
        <time>2019-11-03T12:29:08Z</time>
      </trkpt>
      <trkpt lat="45.42492" lon="5.67192">
        <ele>802.84</ele>
        <time>2019-11-03T12:29:17Z</time>
      </trkpt>
      <trkpt lat="45.42504" lon="5.67164">
        <ele>806.2</ele>
        <time>2019-11-03T12:29:40Z</time>
      </trkpt>
      <trkpt lat="45.42511" lon="5.67151">
        <ele>807.16</ele>
        <time>2019-11-03T12:29:51Z</time>
      </trkpt>
      <trkpt lat="45.42522" lon="5.67141">
        <ele>808.13</ele>
        <time>2019-11-03T12:30:02Z</time>
      </trkpt>
      <trkpt lat="45.42538" lon="5.67124">
        <ele>810.05</ele>
        <time>2019-11-03T12:30:17Z</time>
      </trkpt>
      <trkpt lat="45.4254" lon="5.67121">
        <ele>810.05</ele>
        <time>2019-11-03T12:30:20Z</time>
      </trkpt>
      <trkpt lat="45.42545" lon="5.67116">
        <ele>811.01</ele>
        <time>2019-11-03T12:30:24Z</time>
      </trkpt>
      <trkpt lat="45.42548" lon="5.671">
        <ele>811.97</ele>
        <time>2019-11-03T12:30:33Z</time>
      </trkpt>
      <trkpt lat="45.42551" lon="5.6708">
        <ele>811.97</ele>
        <time>2019-11-03T12:30:45Z</time>
      </trkpt>
      <trkpt lat="45.42553" lon="5.67057">
        <ele>813.89</ele>
        <time>2019-11-03T12:31:01Z</time>
      </trkpt>
      <trkpt lat="45.42567" lon="5.6704">
        <ele>815.82</ele>
        <time>2019-11-03T12:31:18Z</time>
      </trkpt>
      <trkpt lat="45.42568" lon="5.67039">
        <ele>815.82</ele>
        <time>2019-11-03T12:31:19Z</time>
      </trkpt>
      <trkpt lat="45.42582" lon="5.67026">
        <ele>818.22</ele>
        <time>2019-11-03T12:31:35Z</time>
      </trkpt>
      <trkpt lat="45.42599" lon="5.67015">
        <ele>820.14</ele>
        <time>2019-11-03T12:31:52Z</time>
      </trkpt>
      <trkpt lat="45.42615" lon="5.67003">
        <ele>821.1</ele>
        <time>2019-11-03T12:32:08Z</time>
      </trkpt>
      <trkpt lat="45.42622" lon="5.66995">
        <ele>822.06</ele>
        <time>2019-11-03T12:32:16Z</time>
      </trkpt>
      <trkpt lat="45.42633" lon="5.66977">
        <ele>823.99</ele>
        <time>2019-11-03T12:32:32Z</time>
      </trkpt>
      <trkpt lat="45.42643" lon="5.66957">
        <ele>824.95</ele>
        <time>2019-11-03T12:32:46Z</time>
      </trkpt>
      <trkpt lat="45.42644" lon="5.66951">
        <ele>824.95</ele>
        <time>2019-11-03T12:32:50Z</time>
      </trkpt>
      <trkpt lat="45.42644" lon="5.66923">
        <ele>826.87</ele>
        <time>2019-11-03T12:33:07Z</time>
      </trkpt>
      <trkpt lat="45.42637" lon="5.66898">
        <ele>826.87</ele>
        <time>2019-11-03T12:33:23Z</time>
      </trkpt>
      <trkpt lat="45.42639" lon="5.66895">
        <ele>826.87</ele>
        <time>2019-11-03T12:33:26Z</time>
      </trkpt>
      <trkpt lat="45.42652" lon="5.66912">
        <ele>828.79</ele>
        <time>2019-11-03T12:33:41Z</time>
      </trkpt>
      <trkpt lat="45.42654" lon="5.66916">
        <ele>828.79</ele>
        <time>2019-11-03T12:33:44Z</time>
      </trkpt>
      <trkpt lat="45.42655" lon="5.6692">
        <ele>830.24</ele>
        <time>2019-11-03T12:33:47Z</time>
      </trkpt>
      <trkpt lat="45.4266" lon="5.66928">
        <ele>830.24</ele>
        <time>2019-11-03T12:33:52Z</time>
      </trkpt>
      <trkpt lat="45.42668" lon="5.66951">
        <ele>832.16</ele>
        <time>2019-11-03T12:34:09Z</time>
      </trkpt>
      <trkpt lat="45.42669" lon="5.66969">
        <ele>834.08</ele>
        <time>2019-11-03T12:34:21Z</time>
      </trkpt>
      <trkpt lat="45.4267" lon="5.66987">
        <ele>836</ele>
        <time>2019-11-03T12:34:33Z</time>
      </trkpt>
      <trkpt lat="45.42673" lon="5.67004">
        <ele>837.93</ele>
        <time>2019-11-03T12:34:44Z</time>
      </trkpt>
      <trkpt lat="45.42673" lon="5.67015">
        <ele>837.93</ele>
        <time>2019-11-03T12:34:51Z</time>
      </trkpt>
      <trkpt lat="45.42672" lon="5.67038">
        <ele>839.85</ele>
        <time>2019-11-03T12:35:06Z</time>
      </trkpt>
      <trkpt lat="45.4267" lon="5.6706">
        <ele>843.21</ele>
        <time>2019-11-03T12:35:22Z</time>
      </trkpt>
      <trkpt lat="45.42669" lon="5.67078">
        <ele>845.14</ele>
        <time>2019-11-03T12:35:35Z</time>
      </trkpt>
      <trkpt lat="45.42666" lon="5.67094">
        <ele>846.1</ele>
        <time>2019-11-03T12:35:46Z</time>
      </trkpt>
      <trkpt lat="45.42662" lon="5.67114">
        <ele>848.02</ele>
        <time>2019-11-03T12:36:01Z</time>
      </trkpt>
      <trkpt lat="45.42658" lon="5.67125">
        <ele>848.98</ele>
        <time>2019-11-03T12:36:09Z</time>
      </trkpt>
      <trkpt lat="45.42649" lon="5.67144">
        <ele>851.87</ele>
        <time>2019-11-03T12:36:26Z</time>
      </trkpt>
      <trkpt lat="45.42649" lon="5.67146">
        <ele>851.87</ele>
        <time>2019-11-03T12:36:27Z</time>
      </trkpt>
      <trkpt lat="45.42658" lon="5.67157">
        <ele>855.23</ele>
        <time>2019-11-03T12:36:45Z</time>
      </trkpt>
      <trkpt lat="45.42659" lon="5.67157">
        <ele>856.19</ele>
        <time>2019-11-03T12:36:47Z</time>
      </trkpt>
      <trkpt lat="45.42672" lon="5.67147">
        <ele>858.11</ele>
        <time>2019-11-03T12:37:03Z</time>
      </trkpt>
      <trkpt lat="45.42685" lon="5.67132">
        <ele>859.08</ele>
        <time>2019-11-03T12:37:20Z</time>
      </trkpt>
      <trkpt lat="45.42695" lon="5.67116">
        <ele>861.96</ele>
        <time>2019-11-03T12:37:36Z</time>
      </trkpt>
      <trkpt lat="45.42703" lon="5.67098">
        <ele>863.88</ele>
        <time>2019-11-03T12:37:52Z</time>
      </trkpt>
      <trkpt lat="45.42711" lon="5.67082">
        <ele>868.21</ele>
        <time>2019-11-03T12:38:08Z</time>
      </trkpt>
      <trkpt lat="45.42714" lon="5.67078">
        <ele>869.17</ele>
        <time>2019-11-03T12:38:13Z</time>
      </trkpt>
      <trkpt lat="45.42729" lon="5.67076">
        <ele>872.05</ele>
        <time>2019-11-03T12:38:30Z</time>
      </trkpt>
      <trkpt lat="45.42742" lon="5.67083">
        <ele>873.98</ele>
        <time>2019-11-03T12:38:46Z</time>
      </trkpt>
      <trkpt lat="45.42744" lon="5.67086">
        <ele>873.98</ele>
        <time>2019-11-03T12:38:50Z</time>
      </trkpt>
      <trkpt lat="45.42746" lon="5.67096">
        <ele>875.9</ele>
        <time>2019-11-03T12:38:58Z</time>
      </trkpt>
      <trkpt lat="45.42751" lon="5.67109">
        <ele>876.86</ele>
        <time>2019-11-03T12:39:09Z</time>
      </trkpt>
      <trkpt lat="45.42757" lon="5.67111">
        <ele>880.22</ele>
        <time>2019-11-03T12:39:19Z</time>
      </trkpt>
      <trkpt lat="45.42768" lon="5.67097">
        <ele>883.11</ele>
        <time>2019-11-03T12:39:41Z</time>
      </trkpt>
      <trkpt lat="45.42779" lon="5.67087">
        <ele>885.99</ele>
        <time>2019-11-03T12:39:54Z</time>
      </trkpt>
      <trkpt lat="45.42796" lon="5.67074">
        <ele>886.95</ele>
        <time>2019-11-03T12:40:14Z</time>
      </trkpt>
      <trkpt lat="45.42797" lon="5.6707">
        <ele>886.95</ele>
        <time>2019-11-03T12:40:17Z</time>
      </trkpt>
      <trkpt lat="45.42799" lon="5.67052">
        <ele>885.99</ele>
        <time>2019-11-03T12:40:29Z</time>
      </trkpt>
      <trkpt lat="45.42799" lon="5.6704">
        <ele>885.99</ele>
        <time>2019-11-03T12:40:43Z</time>
      </trkpt>
      <trkpt lat="45.42803" lon="5.67021">
        <ele>885.03</ele>
        <time>2019-11-03T12:41:16Z</time>
      </trkpt>
      <trkpt lat="45.42803" lon="5.66999">
        <ele>885.99</ele>
        <time>2019-11-03T12:41:33Z</time>
      </trkpt>
      <trkpt lat="45.42801" lon="5.66978">
        <ele>887.91</ele>
        <time>2019-11-03T12:41:49Z</time>
      </trkpt>
      <trkpt lat="45.42795" lon="5.66947">
        <ele>889.84</ele>
        <time>2019-11-03T12:42:11Z</time>
      </trkpt>
      <trkpt lat="45.42795" lon="5.66945">
        <ele>889.84</ele>
        <time>2019-11-03T12:42:12Z</time>
      </trkpt>
      <trkpt lat="45.42799" lon="5.66923">
        <ele>890.8</ele>
        <time>2019-11-03T12:42:27Z</time>
      </trkpt>
      <trkpt lat="45.42798" lon="5.66901">
        <ele>888.88</ele>
        <time>2019-11-03T12:42:42Z</time>
      </trkpt>
      <trkpt lat="45.42784" lon="5.66878">
        <ele>887.91</ele>
        <time>2019-11-03T12:42:59Z</time>
      </trkpt>
      <trkpt lat="45.42769" lon="5.66857">
        <ele>886.95</ele>
        <time>2019-11-03T12:43:13Z</time>
      </trkpt>
      <trkpt lat="45.42756" lon="5.66834">
        <ele>887.91</ele>
        <time>2019-11-03T12:43:31Z</time>
      </trkpt>
      <trkpt lat="45.42748" lon="5.66809">
        <ele>885.99</ele>
        <time>2019-11-03T12:43:47Z</time>
      </trkpt>
      <trkpt lat="45.42741" lon="5.66782">
        <ele>885.03</ele>
        <time>2019-11-03T12:44:03Z</time>
      </trkpt>
      <trkpt lat="45.42738" lon="5.66777">
        <ele>885.03</ele>
        <time>2019-11-03T12:44:06Z</time>
      </trkpt>
      <trkpt lat="45.42733" lon="5.66755">
        <ele>885.99</ele>
        <time>2019-11-03T12:44:19Z</time>
      </trkpt>
      <trkpt lat="45.42728" lon="5.66737">
        <ele>885.99</ele>
        <time>2019-11-03T12:44:29Z</time>
      </trkpt>
      <trkpt lat="45.42725" lon="5.66727">
        <ele>885.03</ele>
        <time>2019-11-03T12:44:35Z</time>
      </trkpt>
      <trkpt lat="45.42723" lon="5.66717">
        <ele>885.03</ele>
        <time>2019-11-03T12:44:40Z</time>
      </trkpt>
      <trkpt lat="45.42723" lon="5.66707">
        <ele>884.07</ele>
        <time>2019-11-03T12:44:48Z</time>
      </trkpt>
      <trkpt lat="45.42718" lon="5.66698">
        <ele>884.07</ele>
        <time>2019-11-03T12:44:54Z</time>
      </trkpt>
      <trkpt lat="45.42713" lon="5.66667">
        <ele>883.11</ele>
        <time>2019-11-03T12:45:12Z</time>
      </trkpt>
      <trkpt lat="45.42711" lon="5.66658">
        <ele>883.11</ele>
        <time>2019-11-03T12:45:18Z</time>
      </trkpt>
      <trkpt lat="45.42704" lon="5.6664">
        <ele>883.11</ele>
        <time>2019-11-03T12:45:35Z</time>
      </trkpt>
      <trkpt lat="45.42698" lon="5.66631">
        <ele>882.15</ele>
        <time>2019-11-03T12:45:52Z</time>
      </trkpt>
      <trkpt lat="45.42689" lon="5.66614">
        <ele>881.19</ele>
        <time>2019-11-03T12:46:10Z</time>
      </trkpt>
      <trkpt lat="45.42687" lon="5.66608">
        <ele>881.19</ele>
        <time>2019-11-03T12:46:14Z</time>
      </trkpt>
      <trkpt lat="45.42677" lon="5.66586">
        <ele>882.15</ele>
        <time>2019-11-03T12:46:34Z</time>
      </trkpt>
      <trkpt lat="45.42663" lon="5.6656">
        <ele>884.07</ele>
        <time>2019-11-03T12:46:53Z</time>
      </trkpt>
      <trkpt lat="45.42653" lon="5.66544">
        <ele>884.07</ele>
        <time>2019-11-03T12:47:07Z</time>
      </trkpt>
      <trkpt lat="45.42644" lon="5.66521">
        <ele>884.07</ele>
        <time>2019-11-03T12:47:25Z</time>
      </trkpt>
      <trkpt lat="45.42633" lon="5.66496">
        <ele>882.15</ele>
        <time>2019-11-03T12:47:43Z</time>
      </trkpt>
      <trkpt lat="45.42619" lon="5.6647">
        <ele>880.22</ele>
        <time>2019-11-03T12:48:03Z</time>
      </trkpt>
      <trkpt lat="45.42606" lon="5.66442">
        <ele>877.82</ele>
        <time>2019-11-03T12:48:23Z</time>
      </trkpt>
      <trkpt lat="45.42593" lon="5.66414">
        <ele>878.78</ele>
        <time>2019-11-03T12:48:45Z</time>
      </trkpt>
      <trkpt lat="45.42582" lon="5.66396">
        <ele>883.11</ele>
        <time>2019-11-03T12:49:01Z</time>
      </trkpt>
      <trkpt lat="45.42581" lon="5.66393">
        <ele>881.19</ele>
        <time>2019-11-03T12:49:04Z</time>
      </trkpt>
      <trkpt lat="45.42576" lon="5.66366">
        <ele>883.11</ele>
        <time>2019-11-03T12:49:21Z</time>
      </trkpt>
      <trkpt lat="45.42568" lon="5.66341">
        <ele>880.22</ele>
        <time>2019-11-03T12:49:39Z</time>
      </trkpt>
      <trkpt lat="45.42572" lon="5.66325">
        <ele>878.78</ele>
        <time>2019-11-03T12:49:54Z</time>
      </trkpt>
      <trkpt lat="45.42575" lon="5.6631">
        <ele>875.9</ele>
        <time>2019-11-03T12:50:10Z</time>
      </trkpt>
      <trkpt lat="45.42575" lon="5.66308">
        <ele>875.9</ele>
        <time>2019-11-03T12:50:50Z</time>
      </trkpt>
      <trkpt lat="45.42576" lon="5.66308">
        <ele>877.82</ele>
        <time>2019-11-03T12:51:06Z</time>
      </trkpt>
    </trkseg>
  </trk>
</gpx>